aviador You're here:

LDSP Decoded Metar

SPLIT in CROATIA
Report Time2018-06-23 13:30:00
UTC Time2018-06-23 13:50:23
Flight Rules vfr VFR
Wind220° at 08 kt
W.Decomp.*RWY 23: 7.8 kt HW 1.7 kt LCW
W.Rank220° ranks 7
Current wind is above 220° avg. (7.4)
Visibility9999 m
Phenomena:N/A
Clouds:N/A
Expected CloudBase > 6,800 ft AGL from Temp-Dew spread
CeilingNone
Temp24°C (ISA +9)
Dew Point07°C (34% RH)
AAT20.5°C
QNH1016 hPa
Density Alt1,168 ft
Elevation69 ft
Report Wrong Elevation
Raw Report
LDSP 231330Z 22008KT 190V260 CAVOK 24/07 Q1016 TEMPO TL1400
23008KT=

Extra information for LDSP:More info

Metar Taf Metar & Taf Last 4 Metars F.Rules Stats Wind Profile Meteogram Temp Stats Airport Information Weather charts Add Link Nearby VenuesMetar ALERT Operation Metar Decoded Social comments